sensor_id;sensor_type;location;lat;lon;timestamp;temperature;humidity
19898;DHT22;10111;50.814;4.572;2023-08-20T00:01:27;21.20;99.90
19898;DHT22;10111;50.814;4.572;2023-08-20T00:03:53;21.10;99.90
19898;DHT22;10111;50.814;4.572;2023-08-20T00:06:20;21.10;99.90
19898;DHT22;10111;50.814;4.572;2023-08-20T00:08:47;21.10;99.90
19898;DHT22;10111;50.814;4.572;2023-08-20T00:11:13;21.00;99.90
19898;DHT22;10111;50.814;4.572;2023-08-20T00:13:39;21.00;99.90
19898;DHT22;10111;50.814;4.572;2023-08-20T00:16:05;20.90;99.90
19898;DHT22;10111;50.814;4.572;2023-08-20T00:18:31;20.90;99.90
19898;DHT22;10111;50.814;4.572;2023-08-20T00:20:58;20.80;99.90
19898;DHT22;10111;50.814;4.572;2023-08-20T00:23:25;20.80;99.90
19898;DHT22;10111;50.814;4.572;2023-08-20T00:25:51;20.70;99.90
19898;DHT22;10111;50.814;4.572;2023-08-20T00:28:18;20.60;99.90
19898;DHT22;10111;50.814;4.572;2023-08-20T00:30:44;20.60;99.90
19898;DHT22;10111;50.814;4.572;2023-08-20T00:33:10;20.50;99.90
19898;DHT22;10111;50.814;4.572;2023-08-20T00:35:36;20.40;99.90
19898;DHT22;10111;50.814;4.572;2023-08-20T00:38:01;20.30;99.90
19898;DHT22;10111;50.814;4.572;2023-08-20T00:40:28;20.20;99.90
19898;DHT22;10111;50.814;4.572;2023-08-20T00:42:53;20.20;99.90
19898;DHT22;10111;50.814;4.572;2023-08-20T00:45:19;20.10;99.90
19898;DHT22;10111;50.814;4.572;2023-08-20T00:47:45;20.10;99.90
19898;DHT22;10111;50.814;4.572;2023-08-20T00:50:11;20.10;99.90
19898;DHT22;10111;50.814;4.572;2023-08-20T00:52:38;20.10;99.90
19898;DHT22;10111;50.814;4.572;2023-08-20T00:55:08;20.00;99.90
19898;DHT22;10111;50.814;4.572;2023-08-20T00:57:36;20.00;99.90
19898;DHT22;10111;50.814;4.572;2023-08-20T01:00:02;20.00;99.90
19898;DHT22;10111;50.814;4.572;2023-08-20T01:02:32;20.00;99.90
19898;DHT22;10111;50.814;4.572;2023-08-20T01:04:58;19.90;99.90
19898;DHT22;10111;50.814;4.572;2023-08-20T01:07:30;19.90;99.90
19898;DHT22;10111;50.814;4.572;2023-08-20T01:12:34;19.90;99.90
19898;DHT22;10111;50.814;4.572;2023-08-20T01:15:01;19.90;99.90
19898;DHT22;10111;50.814;4.572;2023-08-20T01:17:26;19.90;99.90
19898;DHT22;10111;50.814;4.572;2023-08-20T01:19:52;19.90;99.90
19898;DHT22;10111;50.814;4.572;2023-08-20T01:25:19;19.90;99.90
19898;DHT22;10111;50.814;4.572;2023-08-20T01:30:51;20.00;99.90
19898;DHT22;10111;50.814;4.572;2023-08-20T01:33:19;20.00;99.90
19898;DHT22;10111;50.814;4.572;2023-08-20T01:35:45;20.00;99.90
19898;DHT22;10111;50.814;4.572;2023-08-20T01:38:11;20.10;99.90
19898;DHT22;10111;50.814;4.572;2023-08-20T01:40:37;20.10;99.90
19898;DHT22;10111;50.814;4.572;2023-08-20T01:43:02;20.10;99.90
19898;DHT22;10111;50.814;4.572;2023-08-20T01:45:28;20.10;99.90
19898;DHT22;10111;50.814;4.572;2023-08-20T01:47:54;20.10;99.90
19898;DHT22;10111;50.814;4.572;2023-08-20T01:50:19;20.20;99.90
19898;DHT22;10111;50.814;4.572;2023-08-20T01:52:45;20.20;99.90
19898;DHT22;10111;50.814;4.572;2023-08-20T01:55:11;20.30;99.90
19898;DHT22;10111;50.814;4.572;2023-08-20T01:57:37;20.30;99.90
19898;DHT22;10111;50.814;4.572;2023-08-20T02:00:03;20.40;99.90
19898;DHT22;10111;50.814;4.572;2023-08-20T02:02:30;20.40;99.90
19898;DHT22;10111;50.814;4.572;2023-08-20T02:04:57;20.40;99.90
19898;DHT22;10111;50.814;4.572;2023-08-20T02:07:23;20.50;99.90
19898;DHT22;10111;50.814;4.572;2023-08-20T02:09:48;20.50;99.90
19898;DHT22;10111;50.814;4.572;2023-08-20T02:12:14;20.50;99.90
19898;DHT22;10111;50.814;4.572;2023-08-20T02:14:40;20.60;99.90
19898;DHT22;10111;50.814;4.572;2023-08-20T02:17:06;20.60;99.90
19898;DHT22;10111;50.814;4.572;2023-08-20T02:19:32;20.50;99.90
19898;DHT22;10111;50.814;4.572;2023-08-20T02:21:58;20.60;99.90
19898;DHT22;10111;50.814;4.572;2023-08-20T02:24:23;20.60;99.90
19898;DHT22;10111;50.814;4.572;2023-08-20T02:26:49;20.60;99.90
19898;DHT22;10111;50.814;4.572;2023-08-20T02:29:15;20.60;99.90
19898;DHT22;10111;50.814;4.572;2023-08-20T02:31:40;20.60;99.90
19898;DHT22;10111;50.814;4.572;2023-08-20T02:34:06;20.60;99.90
19898;DHT22;10111;50.814;4.572;2023-08-20T02:36:32;20.60;99.90
19898;DHT22;10111;50.814;4.572;2023-08-20T02:38:57;20.70;99.90
19898;DHT22;10111;50.814;4.572;2023-08-20T02:41:23;20.70;99.90
19898;DHT22;10111;50.814;4.572;2023-08-20T02:43:49;20.60;99.90
19898;DHT22;10111;50.814;4.572;2023-08-20T02:46:14;20.70;99.90
19898;DHT22;10111;50.814;4.572;2023-08-20T02:48:40;20.60;99.90
19898;DHT22;10111;50.814;4.572;2023-08-20T02:51:05;20.60;99.90
19898;DHT22;10111;50.814;4.572;2023-08-20T02:53:32;20.60;99.90
19898;DHT22;10111;50.814;4.572;2023-08-20T02:55:58;20.50;99.90
19898;DHT22;10111;50.814;4.572;2023-08-20T02:58:24;20.60;99.90
19898;DHT22;10111;50.814;4.572;2023-08-20T03:00:50;20.50;99.90
19898;DHT22;10111;50.814;4.572;2023-08-20T03:03:15;20.60;99.90
19898;DHT22;10111;50.814;4.572;2023-08-20T03:05:42;20.60;99.90
19898;DHT22;10111;50.814;4.572;2023-08-20T03:08:08;20.50;99.90
19898;DHT22;10111;50.814;4.572;2023-08-20T03:10:34;20.50;99.90
19898;DHT22;10111;50.814;4.572;2023-08-20T03:13:00;20.50;99.90
19898;DHT22;10111;50.814;4.572;2023-08-20T03:15:27;20.50;99.90
19898;DHT22;10111;50.814;4.572;2023-08-20T03:17:53;20.50;99.90
19898;DHT22;10111;50.814;4.572;2023-08-20T03:20:18;20.50;99.90
19898;DHT22;10111;50.814;4.572;2023-08-20T03:22:44;20.50;99.90
19898;DHT22;10111;50.814;4.572;2023-08-20T03:25:10;20.50;99.90
19898;DHT22;10111;50.814;4.572;2023-08-20T03:27:35;20.50;99.90
19898;DHT22;10111;50.814;4.572;2023-08-20T03:30:02;20.40;99.90
19898;DHT22;10111;50.814;4.572;2023-08-20T03:32:28;20.30;99.90
19898;DHT22;10111;50.814;4.572;2023-08-20T03:34:53;20.20;99.90
19898;DHT22;10111;50.814;4.572;2023-08-20T03:37:21;20.20;99.90
19898;DHT22;10111;50.814;4.572;2023-08-20T03:39:47;20.10;99.90
19898;DHT22;10111;50.814;4.572;2023-08-20T03:42:13;20.00;99.90
19898;DHT22;10111;50.814;4.572;2023-08-20T03:44:39;19.90;99.90
19898;DHT22;10111;50.814;4.572;2023-08-20T03:47:04;19.90;99.90
19898;DHT22;10111;50.814;4.572;2023-08-20T03:49:30;19.80;99.90
19898;DHT22;10111;50.814;4.572;2023-08-20T03:51:56;19.70;99.90
19898;DHT22;10111;50.814;4.572;2023-08-20T03:54:21;19.60;99.90
19898;DHT22;10111;50.814;4.572;2023-08-20T03:56:47;19.50;99.90
19898;DHT22;10111;50.814;4.572;2023-08-20T03:59:12;19.50;99.90
19898;DHT22;10111;50.814;4.572;2023-08-20T04:01:38;19.40;99.90
19898;DHT22;10111;50.814;4.572;2023-08-20T04:04:04;19.40;99.90
19898;DHT22;10111;50.814;4.572;2023-08-20T04:06:30;19.30;99.90
19898;DHT22;10111;50.814;4.572;2023-08-20T04:08:56;19.20;99.90
19898;DHT22;10111;50.814;4.572;2023-08-20T04:11:21;19.20;99.90
19898;DHT22;10111;50.814;4.572;2023-08-20T04:13:47;19.10;99.90
19898;DHT22;10111;50.814;4.572;2023-08-20T04:16:13;19.00;99.90
19898;DHT22;10111;50.814;4.572;2023-08-20T04:18:39;18.90;99.90
19898;DHT22;10111;50.814;4.572;2023-08-20T04:21:05;18.80;99.90
19898;DHT22;10111;50.814;4.572;2023-08-20T04:23:31;18.80;99.90
19898;DHT22;10111;50.814;4.572;2023-08-20T04:25:56;18.70;99.90
19898;DHT22;10111;50.814;4.572;2023-08-20T04:28:22;18.70;99.90
19898;DHT22;10111;50.814;4.572;2023-08-20T04:30:48;18.60;99.90
19898;DHT22;10111;50.814;4.572;2023-08-20T04:33:14;18.60;99.90
19898;DHT22;10111;50.814;4.572;2023-08-20T04:35:40;18.50;99.90
19898;DHT22;10111;50.814;4.572;2023-08-20T04:38:05;18.50;99.90
19898;DHT22;10111;50.814;4.572;2023-08-20T04:40:31;18.40;99.90
19898;DHT22;10111;50.814;4.572;2023-08-20T04:42:57;18.30;99.90
19898;DHT22;10111;50.814;4.572;2023-08-20T04:45:22;18.30;99.90
19898;DHT22;10111;50.814;4.572;2023-08-20T04:47:48;18.20;99.90
19898;DHT22;10111;50.814;4.572;2023-08-20T04:50:14;18.20;99.90
19898;DHT22;10111;50.814;4.572;2023-08-20T04:52:40;18.20;99.90
19898;DHT22;10111;50.814;4.572;2023-08-20T04:55:06;18.20;99.90
19898;DHT22;10111;50.814;4.572;2023-08-20T04:57:32;18.10;99.90
19898;DHT22;10111;50.814;4.572;2023-08-20T04:59:58;18.10;99.90
19898;DHT22;10111;50.814;4.572;2023-08-20T05:02:23;18.10;99.90
19898;DHT22;10111;50.814;4.572;2023-08-20T05:04:49;18.10;99.90
19898;DHT22;10111;50.814;4.572;2023-08-20T05:07:15;18.10;99.90
19898;DHT22;10111;50.814;4.572;2023-08-20T05:09:41;18.10;99.90
19898;DHT22;10111;50.814;4.572;2023-08-20T05:12:07;18.10;99.90
19898;DHT22;10111;50.814;4.572;2023-08-20T05:14:33;18.10;99.90
19898;DHT22;10111;50.814;4.572;2023-08-20T05:16:59;18.10;99.90
19898;DHT22;10111;50.814;4.572;2023-08-20T05:19:25;18.20;99.90
19898;DHT22;10111;50.814;4.572;2023-08-20T05:21:50;18.20;99.90
19898;DHT22;10111;50.814;4.572;2023-08-20T05:24:18;18.20;99.90
19898;DHT22;10111;50.814;4.572;2023-08-20T05:26:43;18.20;99.90
19898;DHT22;10111;50.814;4.572;2023-08-20T05:29:09;18.20;99.90
19898;DHT22;10111;50.814;4.572;2023-08-20T05:31:34;18.30;99.90
19898;DHT22;10111;50.814;4.572;2023-08-20T05:34:00;18.40;99.90
19898;DHT22;10111;50.814;4.572;2023-08-20T05:36:26;18.40;99.90
19898;DHT22;10111;50.814;4.572;2023-08-20T05:38:51;18.50;99.90
19898;DHT22;10111;50.814;4.572;2023-08-20T05:41:17;18.70;99.90
19898;DHT22;10111;50.814;4.572;2023-08-20T05:43:43;18.70;99.90
19898;DHT22;10111;50.814;4.572;2023-08-20T05:46:08;18.90;99.90
19898;DHT22;10111;50.814;4.572;2023-08-20T05:48:34;19.00;99.90
19898;DHT22;10111;50.814;4.572;2023-08-20T05:51:00;19.20;99.90
19898;DHT22;10111;50.814;4.572;2023-08-20T05:53:25;19.30;99.90
19898;DHT22;10111;50.814;4.572;2023-08-20T05:55:51;19.50;99.90
19898;DHT22;10111;50.814;4.572;2023-08-20T05:58:16;19.60;99.90
19898;DHT22;10111;50.814;4.572;2023-08-20T06:00:42;19.70;99.90
19898;DHT22;10111;50.814;4.572;2023-08-20T06:03:08;19.80;99.90
19898;DHT22;10111;50.814;4.572;2023-08-20T06:05:34;19.90;99.90
19898;DHT22;10111;50.814;4.572;2023-08-20T06:08:00;20.10;99.90
19898;DHT22;10111;50.814;4.572;2023-08-20T06:10:25;20.20;99.90
19898;DHT22;10111;50.814;4.572;2023-08-20T06:12:52;20.30;99.90
19898;DHT22;10111;50.814;4.572;2023-08-20T06:15:18;20.40;99.90
19898;DHT22;10111;50.814;4.572;2023-08-20T06:17:43;20.60;99.90
19898;DHT22;10111;50.814;4.572;2023-08-20T06:20:09;20.70;99.90
19898;DHT22;10111;50.814;4.572;2023-08-20T06:22:37;20.90;99.90
19898;DHT22;10111;50.814;4.572;2023-08-20T06:25:03;21.10;99.90
19898;DHT22;10111;50.814;4.572;2023-08-20T06:27:30;21.30;99.90
19898;DHT22;10111;50.814;4.572;2023-08-20T06:29:55;21.40;99.90
19898;DHT22;10111;50.814;4.572;2023-08-20T06:32:21;21.60;99.90
19898;DHT22;10111;50.814;4.572;2023-08-20T06:34:47;21.70;99.90
19898;DHT22;10111;50.814;4.572;2023-08-20T06:37:13;21.90;99.90
19898;DHT22;10111;50.814;4.572;2023-08-20T06:39:38;22.00;99.90
19898;DHT22;10111;50.814;4.572;2023-08-20T06:42:04;22.10;99.90
19898;DHT22;10111;50.814;4.572;2023-08-20T06:44:30;22.30;99.90
19898;DHT22;10111;50.814;4.572;2023-08-20T06:46:55;22.30;99.90
19898;DHT22;10111;50.814;4.572;2023-08-20T06:49:21;22.40;99.90
19898;DHT22;10111;50.814;4.572;2023-08-20T06:51:47;22.40;99.90
19898;DHT22;10111;50.814;4.572;2023-08-20T06:54:14;22.60;99.90
19898;DHT22;10111;50.814;4.572;2023-08-20T06:56:40;22.70;99.90
19898;DHT22;10111;50.814;4.572;2023-08-20T06:59:05;22.90;99.90
19898;DHT22;10111;50.814;4.572;2023-08-20T07:01:31;23.00;99.90
19898;DHT22;10111;50.814;4.572;2023-08-20T07:03:56;23.00;99.90
19898;DHT22;10111;50.814;4.572;2023-08-20T07:06:22;23.20;99.90
19898;DHT22;10111;50.814;4.572;2023-08-20T07:08:48;23.30;99.90
19898;DHT22;10111;50.814;4.572;2023-08-20T07:11:13;23.40;99.90
19898;DHT22;10111;50.814;4.572;2023-08-20T07:13:39;23.50;99.90
19898;DHT22;10111;50.814;4.572;2023-08-20T07:16:05;23.60;99.90
19898;DHT22;10111;50.814;4.572;2023-08-20T07:18:30;23.60;99.90
19898;DHT22;10111;50.814;4.572;2023-08-20T07:20:56;23.60;99.90
19898;DHT22;10111;50.814;4.572;2023-08-20T07:23:22;23.50;99.90
19898;DHT22;10111;50.814;4.572;2023-08-20T07:25:48;23.60;99.90
19898;DHT22;10111;50.814;4.572;2023-08-20T07:28:17;23.70;99.90
19898;DHT22;10111;50.814;4.572;2023-08-20T07:30:52;23.90;99.90
19898;DHT22;10111;50.814;4.572;2023-08-20T07:33:17;24.10;99.90
19898;DHT22;10111;50.814;4.572;2023-08-20T07:35:43;24.30;99.90
19898;DHT22;10111;50.814;4.572;2023-08-20T07:38:09;24.10;99.90
19898;DHT22;10111;50.814;4.572;2023-08-20T07:40:34;24.30;99.90
19898;DHT22;10111;50.814;4.572;2023-08-20T07:43:00;24.50;99.90
19898;DHT22;10111;50.814;4.572;2023-08-20T07:45:26;24.70;99.90
19898;DHT22;10111;50.814;4.572;2023-08-20T07:47:51;24.80;99.90
19898;DHT22;10111;50.814;4.572;2023-08-20T07:50:17;24.90;99.90
19898;DHT22;10111;50.814;4.572;2023-08-20T07:52:43;25.00;99.90
19898;DHT22;10111;50.814;4.572;2023-08-20T07:55:09;25.00;99.90
19898;DHT22;10111;50.814;4.572;2023-08-20T07:57:34;25.10;99.90
19898;DHT22;10111;50.814;4.572;2023-08-20T08:00:00;25.30;99.90
19898;DHT22;10111;50.814;4.572;2023-08-20T08:02:27;25.30;99.90
19898;DHT22;10111;50.814;4.572;2023-08-20T08:04:52;25.50;99.90
19898;DHT22;10111;50.814;4.572;2023-08-20T08:07:18;25.40;99.90
19898;DHT22;10111;50.814;4.572;2023-08-20T08:09:44;25.50;99.90
19898;DHT22;10111;50.814;4.572;2023-08-20T08:12:10;25.30;99.90
19898;DHT22;10111;50.814;4.572;2023-08-20T08:14:36;25.40;99.90
19898;DHT22;10111;50.814;4.572;2023-08-20T08:17:02;25.30;99.90
19898;DHT22;10111;50.814;4.572;2023-08-20T08:19:27;25.40;99.90
19898;DHT22;10111;50.814;4.572;2023-08-20T08:21:53;25.20;99.90
19898;DHT22;10111;50.814;4.572;2023-08-20T08:24:19;25.30;99.90
19898;DHT22;10111;50.814;4.572;2023-08-20T08:26:45;25.40;99.90
19898;DHT22;10111;50.814;4.572;2023-08-20T08:29:10;25.50;99.90
19898;DHT22;10111;50.814;4.572;2023-08-20T08:31:37;25.60;99.90
19898;DHT22;10111;50.814;4.572;2023-08-20T08:34:02;25.90;99.90
19898;DHT22;10111;50.814;4.572;2023-08-20T08:36:29;26.20;99.90
19898;DHT22;10111;50.814;4.572;2023-08-20T08:38:54;26.20;99.90
19898;DHT22;10111;50.814;4.572;2023-08-20T08:41:25;26.40;99.90
19898;DHT22;10111;50.814;4.572;2023-08-20T08:43:51;26.50;99.90
19898;DHT22;10111;50.814;4.572;2023-08-20T08:46:17;26.60;99.90
19898;DHT22;10111;50.814;4.572;2023-08-20T08:48:44;26.60;99.90
19898;DHT22;10111;50.814;4.572;2023-08-20T08:51:12;26.60;99.90
19898;DHT22;10111;50.814;4.572;2023-08-20T08:53:38;26.40;99.90
19898;DHT22;10111;50.814;4.572;2023-08-20T08:56:04;26.50;99.90
19898;DHT22;10111;50.814;4.572;2023-08-20T08:58:32;26.70;99.90
19898;DHT22;10111;50.814;4.572;2023-08-20T09:00:58;26.60;99.90
19898;DHT22;10111;50.814;4.572;2023-08-20T09:03:23;26.70;99.90
19898;DHT22;10111;50.814;4.572;2023-08-20T09:05:58;26.70;99.90
19898;DHT22;10111;50.814;4.572;2023-08-20T09:08:32;26.90;99.90
19898;DHT22;10111;50.814;4.572;2023-08-20T09:11:00;27.00;99.90
19898;DHT22;10111;50.814;4.572;2023-08-20T09:13:36;27.10;99.90
19898;DHT22;10111;50.814;4.572;2023-08-20T09:16:09;27.20;99.90
19898;DHT22;10111;50.814;4.572;2023-08-20T09:18:44;27.60;99.90
19898;DHT22;10111;50.814;4.572;2023-08-20T09:21:11;27.70;99.90
19898;DHT22;10111;50.814;4.572;2023-08-20T09:23:38;27.80;99.90
19898;DHT22;10111;50.814;4.572;2023-08-20T09:26:05;27.70;99.90
19898;DHT22;10111;50.814;4.572;2023-08-20T09:28:44;27.80;99.90
19898;DHT22;10111;50.814;4.572;2023-08-20T09:31:10;27.80;99.90
19898;DHT22;10111;50.814;4.572;2023-08-20T09:33:36;27.80;99.90
19898;DHT22;10111;50.814;4.572;2023-08-20T09:36:07;27.70;99.90
19898;DHT22;10111;50.814;4.572;2023-08-20T09:38:37;27.60;99.90
19898;DHT22;10111;50.814;4.572;2023-08-20T09:41:05;27.50;99.90
19898;DHT22;10111;50.814;4.572;2023-08-20T09:43:38;27.50;99.90
19898;DHT22;10111;50.814;4.572;2023-08-20T09:46:07;27.60;99.90
19898;DHT22;10111;50.814;4.572;2023-08-20T09:48:34;27.70;99.90
19898;DHT22;10111;50.814;4.572;2023-08-20T09:51:10;27.70;99.90
19898;DHT22;10111;50.814;4.572;2023-08-20T09:53:48;27.70;99.90
19898;DHT22;10111;50.814;4.572;2023-08-20T09:56:26;27.70;99.90
19898;DHT22;10111;50.814;4.572;2023-08-20T09:58:53;27.60;99.90
19898;DHT22;10111;50.814;4.572;2023-08-20T10:01:19;27.50;99.90
19898;DHT22;10111;50.814;4.572;2023-08-20T10:03:45;27.50;99.90
19898;DHT22;10111;50.814;4.572;2023-08-20T10:06:11;27.50;99.90
19898;DHT22;10111;50.814;4.572;2023-08-20T10:08:38;27.50;99.90
19898;DHT22;10111;50.814;4.572;2023-08-20T10:11:03;27.60;99.90
19898;DHT22;10111;50.814;4.572;2023-08-20T10:13:29;27.50;99.90
19898;DHT22;10111;50.814;4.572;2023-08-20T10:15:56;27.40;99.90
19898;DHT22;10111;50.814;4.572;2023-08-20T10:18:22;27.30;99.90
19898;DHT22;10111;50.814;4.572;2023-08-20T10:20:50;27.20;99.90
19898;DHT22;10111;50.814;4.572;2023-08-20T10:23:22;27.20;99.90
19898;DHT22;10111;50.814;4.572;2023-08-20T10:25:54;26.90;99.90
19898;DHT22;10111;50.814;4.572;2023-08-20T10:28:31;26.70;99.90
19898;DHT22;10111;50.814;4.572;2023-08-20T10:33:28;26.60;99.90
19898;DHT22;10111;50.814;4.572;2023-08-20T10:35:54;26.70;99.90
19898;DHT22;10111;50.814;4.572;2023-08-20T10:38:20;26.80;99.90
19898;DHT22;10111;50.814;4.572;2023-08-20T10:43:32;27.00;99.90
19898;DHT22;10111;50.814;4.572;2023-08-20T10:56:47;27.10;99.90
19898;DHT22;10111;50.814;4.572;2023-08-20T10:59:29;27.30;99.90
19898;DHT22;10111;50.814;4.572;2023-08-20T11:01:59;27.30;99.90
19898;DHT22;10111;50.814;4.572;2023-08-20T11:04:30;27.10;99.90
19898;DHT22;10111;50.814;4.572;2023-08-20T11:06:58;26.90;99.90
19898;DHT22;10111;50.814;4.572;2023-08-20T11:09:26;26.70;99.90
19898;DHT22;10111;50.814;4.572;2023-08-20T11:11:53;26.60;99.90
19898;DHT22;10111;50.814;4.572;2023-08-20T11:14:20;26.60;99.90
19898;DHT22;10111;50.814;4.572;2023-08-20T11:16:46;26.70;99.90
19898;DHT22;10111;50.814;4.572;2023-08-20T11:19:13;26.60;99.90
19898;DHT22;10111;50.814;4.572;2023-08-20T11:21:40;26.50;99.90
19898;DHT22;10111;50.814;4.572;2023-08-20T11:24:07;26.60;99.90
19898;DHT22;10111;50.814;4.572;2023-08-20T11:26:39;26.60;99.90
19898;DHT22;10111;50.814;4.572;2023-08-20T11:29:12;26.80;99.90
19898;DHT22;10111;50.814;4.572;2023-08-20T11:31:39;26.80;99.90
19898;DHT22;10111;50.814;4.572;2023-08-20T11:34:05;26.70;99.90
19898;DHT22;10111;50.814;4.572;2023-08-20T11:36:31;26.70;99.90
19898;DHT22;10111;50.814;4.572;2023-08-20T11:38:57;26.60;99.90
19898;DHT22;10111;50.814;4.572;2023-08-20T11:41:23;26.50;99.90
19898;DHT22;10111;50.814;4.572;2023-08-20T11:43:52;26.40;99.90
19898;DHT22;10111;50.814;4.572;2023-08-20T11:46:23;26.40;99.90
19898;DHT22;10111;50.814;4.572;2023-08-20T11:49:20;26.50;99.90
19898;DHT22;10111;50.814;4.572;2023-08-20T11:51:51;26.20;99.90
19898;DHT22;10111;50.814;4.572;2023-08-20T11:54:18;26.40;99.90
19898;DHT22;10111;50.814;4.572;2023-08-20T11:56:51;26.60;99.90
19898;DHT22;10111;50.814;4.572;2023-08-20T11:59:20;26.60;99.90
19898;DHT22;10111;50.814;4.572;2023-08-20T12:01:56;26.40;99.90
19898;DHT22;10111;50.814;4.572;2023-08-20T12:04:25;26.50;99.90
19898;DHT22;10111;50.814;4.572;2023-08-20T12:07:09;26.60;99.90
19898;DHT22;10111;50.814;4.572;2023-08-20T12:09:35;26.60;99.90
19898;DHT22;10111;50.814;4.572;2023-08-20T12:12:01;26.60;99.90
19898;DHT22;10111;50.814;4.572;2023-08-20T12:14:28;26.70;99.90
19898;DHT22;10111;50.814;4.572;2023-08-20T12:16:54;26.80;99.90
19898;DHT22;10111;50.814;4.572;2023-08-20T12:19:20;26.90;99.90
19898;DHT22;10111;50.814;4.572;2023-08-20T12:21:46;26.70;99.90
19898;DHT22;10111;50.814;4.572;2023-08-20T12:24:12;26.80;99.90
19898;DHT22;10111;50.814;4.572;2023-08-20T12:26:38;26.80;99.90
19898;DHT22;10111;50.814;4.572;2023-08-20T12:29:04;27.00;99.90
19898;DHT22;10111;50.814;4.572;2023-08-20T12:31:30;27.10;99.90
19898;DHT22;10111;50.814;4.572;2023-08-20T12:33:56;27.10;99.90
19898;DHT22;10111;50.814;4.572;2023-08-20T12:36:22;27.10;99.90
19898;DHT22;10111;50.814;4.572;2023-08-20T12:38:47;27.20;99.90
19898;DHT22;10111;50.814;4.572;2023-08-20T12:41:13;27.10;99.90
19898;DHT22;10111;50.814;4.572;2023-08-20T12:43:39;27.00;99.90
19898;DHT22;10111;50.814;4.572;2023-08-20T12:46:04;27.10;99.90
19898;DHT22;10111;50.814;4.572;2023-08-20T12:48:30;27.20;99.90
19898;DHT22;10111;50.814;4.572;2023-08-20T12:50:57;27.10;99.90
19898;DHT22;10111;50.814;4.572;2023-08-20T12:53:23;27.10;99.90
19898;DHT22;10111;50.814;4.572;2023-08-20T12:55:48;27.30;99.90
19898;DHT22;10111;50.814;4.572;2023-08-20T12:58:14;27.40;99.90
19898;DHT22;10111;50.814;4.572;2023-08-20T13:00:40;27.50;99.90
19898;DHT22;10111;50.814;4.572;2023-08-20T13:03:05;27.80;99.90
19898;DHT22;10111;50.814;4.572;2023-08-20T13:05:32;28.10;99.90
19898;DHT22;10111;50.814;4.572;2023-08-20T13:07:58;28.40;99.90
19898;DHT22;10111;50.814;4.572;2023-08-20T13:10:24;28.40;99.90
19898;DHT22;10111;50.814;4.572;2023-08-20T13:12:53;28.30;99.90
19898;DHT22;10111;50.814;4.572;2023-08-20T13:15:20;28.30;99.90
19898;DHT22;10111;50.814;4.572;2023-08-20T13:17:48;28.20;99.90
19898;DHT22;10111;50.814;4.572;2023-08-20T13:20:14;28.30;99.90
19898;DHT22;10111;50.814;4.572;2023-08-20T13:22:40;28.20;99.90
19898;DHT22;10111;50.814;4.572;2023-08-20T13:25:07;28.30;99.90
19898;DHT22;10111;50.814;4.572;2023-08-20T13:27:33;28.20;99.90
19898;DHT22;10111;50.814;4.572;2023-08-20T13:29:59;28.30;99.90
19898;DHT22;10111;50.814;4.572;2023-08-20T13:32:24;28.30;99.90
19898;DHT22;10111;50.814;4.572;2023-08-20T13:34:50;28.20;99.90
19898;DHT22;10111;50.814;4.572;2023-08-20T13:37:16;28.20;99.90
19898;DHT22;10111;50.814;4.572;2023-08-20T13:39:43;28.40;99.90
19898;DHT22;10111;50.814;4.572;2023-08-20T13:42:08;28.60;99.90
19898;DHT22;10111;50.814;4.572;2023-08-20T13:44:34;28.80;99.90
19898;DHT22;10111;50.814;4.572;2023-08-20T13:47:00;28.80;99.90
19898;DHT22;10111;50.814;4.572;2023-08-20T13:49:25;28.90;99.90
19898;DHT22;10111;50.814;4.572;2023-08-20T13:51:51;28.80;99.90
19898;DHT22;10111;50.814;4.572;2023-08-20T13:54:17;28.60;99.90
19898;DHT22;10111;50.814;4.572;2023-08-20T13:56:43;28.50;99.90
19898;DHT22;10111;50.814;4.572;2023-08-20T13:59:11;28.50;99.90
19898;DHT22;10111;50.814;4.572;2023-08-20T14:01:37;28.40;99.90
19898;DHT22;10111;50.814;4.572;2023-08-20T14:04:03;28.40;99.90
19898;DHT22;10111;50.814;4.572;2023-08-20T14:06:29;28.40;99.90
19898;DHT22;10111;50.814;4.572;2023-08-20T14:08:55;28.50;99.90
19898;DHT22;10111;50.814;4.572;2023-08-20T14:11:20;28.40;99.90
19898;DHT22;10111;50.814;4.572;2023-08-20T14:13:48;28.40;99.90
19898;DHT22;10111;50.814;4.572;2023-08-20T14:16:14;28.50;99.90
19898;DHT22;10111;50.814;4.572;2023-08-20T14:18:40;28.50;99.90
19898;DHT22;10111;50.814;4.572;2023-08-20T14:21:06;28.60;99.90
19898;DHT22;10111;50.814;4.572;2023-08-20T14:23:31;28.70;99.90
19898;DHT22;10111;50.814;4.572;2023-08-20T14:25:57;28.70;99.90
19898;DHT22;10111;50.814;4.572;2023-08-20T14:28:22;28.70;99.90
19898;DHT22;10111;50.814;4.572;2023-08-20T14:30:49;28.60;99.90
19898;DHT22;10111;50.814;4.572;2023-08-20T14:33:16;28.60;99.90
19898;DHT22;10111;50.814;4.572;2023-08-20T14:35:42;28.70;99.90
19898;DHT22;10111;50.814;4.572;2023-08-20T14:38:07;28.80;99.90
19898;DHT22;10111;50.814;4.572;2023-08-20T14:40:41;28.90;99.90
19898;DHT22;10111;50.814;4.572;2023-08-20T14:43:08;29.00;99.90
19898;DHT22;10111;50.814;4.572;2023-08-20T14:45:33;29.20;99.90
19898;DHT22;10111;50.814;4.572;2023-08-20T14:47:59;29.40;99.90
19898;DHT22;10111;50.814;4.572;2023-08-20T14:50:25;29.40;99.90
19898;DHT22;10111;50.814;4.572;2023-08-20T14:52:50;29.50;99.90
19898;DHT22;10111;50.814;4.572;2023-08-20T14:55:19;29.50;99.90
19898;DHT22;10111;50.814;4.572;2023-08-20T14:57:45;29.60;99.90
19898;DHT22;10111;50.814;4.572;2023-08-20T15:00:14;29.80;99.90
19898;DHT22;10111;50.814;4.572;2023-08-20T15:02:41;29.80;99.90
19898;DHT22;10111;50.814;4.572;2023-08-20T15:05:07;29.80;99.90
19898;DHT22;10111;50.814;4.572;2023-08-20T15:07:32;29.60;99.90
19898;DHT22;10111;50.814;4.572;2023-08-20T15:09:58;29.20;99.90
19898;DHT22;10111;50.814;4.572;2023-08-20T15:12:24;28.80;99.90
19898;DHT22;10111;50.814;4.572;2023-08-20T15:14:49;28.50;99.90
19898;DHT22;10111;50.814;4.572;2023-08-20T15:17:15;28.50;99.90
19898;DHT22;10111;50.814;4.572;2023-08-20T15:19:40;28.40;99.90
19898;DHT22;10111;50.814;4.572;2023-08-20T15:22:06;28.50;99.90
19898;DHT22;10111;50.814;4.572;2023-08-20T15:24:32;28.60;99.90
19898;DHT22;10111;50.814;4.572;2023-08-20T15:26:57;28.80;99.90
19898;DHT22;10111;50.814;4.572;2023-08-20T15:29:23;28.80;99.90
19898;DHT22;10111;50.814;4.572;2023-08-20T15:31:49;28.80;99.90
19898;DHT22;10111;50.814;4.572;2023-08-20T15:34:17;28.80;99.90
19898;DHT22;10111;50.814;4.572;2023-08-20T15:36:43;28.80;99.90
19898;DHT22;10111;50.814;4.572;2023-08-20T15:39:09;28.40;99.90
19898;DHT22;10111;50.814;4.572;2023-08-20T15:41:34;28.10;99.90
19898;DHT22;10111;50.814;4.572;2023-08-20T15:44:00;27.90;99.90
19898;DHT22;10111;50.814;4.572;2023-08-20T15:46:26;27.80;99.90
19898;DHT22;10111;50.814;4.572;2023-08-20T15:48:52;27.70;99.90
19898;DHT22;10111;50.814;4.572;2023-08-20T15:51:18;27.70;99.90